sensor_id;sensor_type;location;lat;lon;timestamp;P1;durP1;ratioP1;P2;durP2;ratioP2
60030;SDS011;45901;47.600;9.890;2022-11-12T00:00:42;10.87;;;6.10;;
60030;SDS011;45901;47.600;9.890;2022-11-12T00:03:10;9.67;;;6.37;;
60030;SDS011;45901;47.600;9.890;2022-11-12T00:05:37;13.87;;;5.93;;
60030;SDS011;45901;47.600;9.890;2022-11-12T00:08:04;9.37;;;5.60;;
60030;SDS011;45901;47.600;9.890;2022-11-12T00:13:01;9.33;;;4.77;;
60030;SDS011;45901;47.600;9.890;2022-11-12T00:15:29;7.23;;;5.03;;
60030;SDS011;45901;47.600;9.890;2022-11-12T00:17:56;9.03;;;4.87;;
60030;SDS011;45901;47.600;9.890;2022-11-12T00:20:23;8.07;;;4.50;;
60030;SDS011;45901;47.600;9.890;2022-11-12T00:22:51;10.03;;;4.80;;
60030;SDS011;45901;47.600;9.890;2022-11-12T00:25:18;6.87;;;4.20;;
60030;SDS011;45901;47.600;9.890;2022-11-12T00:27:46;6.77;;;4.00;;
60030;SDS011;45901;47.600;9.890;2022-11-12T00:30:14;6.80;;;4.47;;
60030;SDS011;45901;47.600;9.890;2022-11-12T00:32:42;7.53;;;4.13;;
60030;SDS011;45901;47.600;9.890;2022-11-12T00:35:09;8.20;;;4.63;;
60030;SDS011;45901;47.600;9.890;2022-11-12T00:37:36;7.93;;;4.17;;
60030;SDS011;45901;47.600;9.890;2022-11-12T00:40:04;6.97;;;3.47;;
60030;SDS011;45901;47.600;9.890;2022-11-12T00:42:33;6.90;;;4.17;;
60030;SDS011;45901;47.600;9.890;2022-11-12T00:45:01;6.33;;;3.57;;
60030;SDS011;45901;47.600;9.890;2022-11-12T00:47:29;6.03;;;3.27;;
60030;SDS011;45901;47.600;9.890;2022-11-12T00:49:56;5.20;;;3.40;;
60030;SDS011;45901;47.600;9.890;2022-11-12T00:52:24;3.37;;;2.30;;
60030;SDS011;45901;47.600;9.890;2022-11-12T00:54:51;5.70;;;3.20;;
60030;SDS011;45901;47.600;9.890;2022-11-12T00:57:18;5.30;;;3.10;;
60030;SDS011;45901;47.600;9.890;2022-11-12T00:59:45;3.90;;;2.53;;
60030;SDS011;45901;47.600;9.890;2022-11-12T01:02:14;7.20;;;2.70;;
60030;SDS011;45901;47.600;9.890;2022-11-12T01:07:52;3.67;;;2.33;;
60030;SDS011;45901;47.600;9.890;2022-11-12T01:10:19;5.33;;;2.50;;
60030;SDS011;45901;47.600;9.890;2022-11-12T01:12:47;4.43;;;2.43;;
60030;SDS011;45901;47.600;9.890;2022-11-12T01:15:14;4.13;;;2.50;;
60030;SDS011;45901;47.600;9.890;2022-11-12T01:17:43;3.40;;;2.20;;
60030;SDS011;45901;47.600;9.890;2022-11-12T01:20:10;4.50;;;2.60;;
60030;SDS011;45901;47.600;9.890;2022-11-12T01:22:37;6.07;;;2.63;;
60030;SDS011;45901;47.600;9.890;2022-11-12T01:25:05;5.60;;;3.50;;
60030;SDS011;45901;47.600;9.890;2022-11-12T01:27:33;8.37;;;3.83;;
60030;SDS011;45901;47.600;9.890;2022-11-12T01:30:00;4.60;;;2.83;;
60030;SDS011;45901;47.600;9.890;2022-11-12T01:32:27;8.93;;;2.80;;
60030;SDS011;45901;47.600;9.890;2022-11-12T01:34:56;5.07;;;2.90;;
60030;SDS011;45901;47.600;9.890;2022-11-12T01:37:23;4.90;;;3.00;;
60030;SDS011;45901;47.600;9.890;2022-11-12T01:39:50;4.13;;;2.50;;
60030;SDS011;45901;47.600;9.890;2022-11-12T01:42:18;4.63;;;1.97;;
60030;SDS011;45901;47.600;9.890;2022-11-12T01:44:45;8.10;;;2.90;;
60030;SDS011;45901;47.600;9.890;2022-11-12T01:47:13;22.23;;;4.03;;
60030;SDS011;45901;47.600;9.890;2022-11-12T01:49:46;12.77;;;4.50;;
60030;SDS011;45901;47.600;9.890;2022-11-12T01:52:20;13.73;;;5.10;;
60030;SDS011;45901;47.600;9.890;2022-11-12T01:54:52;6.30;;;4.13;;
60030;SDS011;45901;47.600;9.890;2022-11-12T01:57:25;7.17;;;4.50;;
60030;SDS011;45901;47.600;9.890;2022-11-12T01:59:58;9.70;;;4.43;;
60030;SDS011;45901;47.600;9.890;2022-11-12T02:02:32;22.90;;;5.07;;
60030;SDS011;45901;47.600;9.890;2022-11-12T02:05:02;7.20;;;4.33;;
60030;SDS011;45901;47.600;9.890;2022-11-12T02:07:35;16.30;;;4.07;;
60030;SDS011;45901;47.600;9.890;2022-11-12T02:10:06;5.87;;;4.20;;
60030;SDS011;45901;47.600;9.890;2022-11-12T02:12:35;5.20;;;3.97;;
60030;SDS011;45901;47.600;9.890;2022-11-12T02:15:20;6.77;;;4.17;;
60030;SDS011;45901;47.600;9.890;2022-11-12T02:17:47;5.67;;;4.07;;
60030;SDS011;45901;47.600;9.890;2022-11-12T02:20:15;6.50;;;3.90;;
60030;SDS011;45901;47.600;9.890;2022-11-12T02:22:44;5.37;;;4.07;;
60030;SDS011;45901;47.600;9.890;2022-11-12T02:25:12;5.13;;;4.00;;
60030;SDS011;45901;47.600;9.890;2022-11-12T02:27:44;4.97;;;3.80;;
60030;SDS011;45901;47.600;9.890;2022-11-12T02:30:15;4.33;;;3.37;;
60030;SDS011;45901;47.600;9.890;2022-11-12T02:32:43;5.43;;;4.00;;
60030;SDS011;45901;47.600;9.890;2022-11-12T02:35:10;4.63;;;3.53;;
60030;SDS011;45901;47.600;9.890;2022-11-12T02:37:38;4.07;;;3.33;;
60030;SDS011;45901;47.600;9.890;2022-11-12T02:40:07;3.90;;;2.93;;
60030;SDS011;45901;47.600;9.890;2022-11-12T02:42:36;4.63;;;3.77;;
60030;SDS011;45901;47.600;9.890;2022-11-12T02:45:03;4.40;;;3.50;;
60030;SDS011;45901;47.600;9.890;2022-11-12T02:47:31;5.27;;;3.87;;
60030;SDS011;45901;47.600;9.890;2022-11-12T02:49:59;4.50;;;3.47;;
60030;SDS011;45901;47.600;9.890;2022-11-12T02:52:26;3.73;;;3.23;;
60030;SDS011;45901;47.600;9.890;2022-11-12T02:54:56;4.33;;;3.47;;
60030;SDS011;45901;47.600;9.890;2022-11-12T02:57:25;4.40;;;3.50;;
60030;SDS011;45901;47.600;9.890;2022-11-12T02:59:53;4.03;;;3.20;;
60030;SDS011;45901;47.600;9.890;2022-11-12T03:02:23;4.53;;;3.50;;
60030;SDS011;45901;47.600;9.890;2022-11-12T03:04:50;7.10;;;4.03;;
60030;SDS011;45901;47.600;9.890;2022-11-12T03:07:17;4.97;;;3.60;;
60030;SDS011;45901;47.600;9.890;2022-11-12T03:09:44;5.67;;;3.73;;
60030;SDS011;45901;47.600;9.890;2022-11-12T03:12:12;4.43;;;3.47;;
60030;SDS011;45901;47.600;9.890;2022-11-12T03:14:40;5.43;;;3.80;;
60030;SDS011;45901;47.600;9.890;2022-11-12T03:17:08;4.67;;;3.43;;
60030;SDS011;45901;47.600;9.890;2022-11-12T03:19:35;4.73;;;3.37;;
60030;SDS011;45901;47.600;9.890;2022-11-12T03:22:02;6.37;;;3.70;;
60030;SDS011;45901;47.600;9.890;2022-11-12T03:24:29;7.00;;;4.07;;
60030;SDS011;45901;47.600;9.890;2022-11-12T03:26:56;7.30;;;4.13;;
60030;SDS011;45901;47.600;9.890;2022-11-12T03:29:24;12.17;;;4.70;;
60030;SDS011;45901;47.600;9.890;2022-11-12T03:31:52;12.60;;;4.90;;
60030;SDS011;45901;47.600;9.890;2022-11-12T03:34:20;9.77;;;5.23;;
60030;SDS011;45901;47.600;9.890;2022-11-12T03:36:47;7.57;;;5.37;;
60030;SDS011;45901;47.600;9.890;2022-11-12T03:39:14;20.43;;;6.03;;
60030;SDS011;45901;47.600;9.890;2022-11-12T03:41:41;21.23;;;6.37;;
60030;SDS011;45901;47.600;9.890;2022-11-12T03:44:09;21.53;;;6.73;;
60030;SDS011;45901;47.600;9.890;2022-11-12T03:46:36;8.60;;;6.07;;
60030;SDS011;45901;47.600;9.890;2022-11-12T03:49:04;9.30;;;6.63;;
60030;SDS011;45901;47.600;9.890;2022-11-12T03:51:32;9.63;;;6.63;;
60030;SDS011;45901;47.600;9.890;2022-11-12T03:53:59;9.70;;;6.50;;
60030;SDS011;45901;47.600;9.890;2022-11-12T03:56:26;9.20;;;6.37;;
60030;SDS011;45901;47.600;9.890;2022-11-12T03:58:55;8.97;;;6.07;;
60030;SDS011;45901;47.600;9.890;2022-11-12T04:01:23;10.00;;;6.50;;
60030;SDS011;45901;47.600;9.890;2022-11-12T04:03:51;8.67;;;6.13;;
60030;SDS011;45901;47.600;9.890;2022-11-12T04:06:20;8.03;;;5.83;;
60030;SDS011;45901;47.600;9.890;2022-11-12T04:09:16;8.43;;;6.20;;
60030;SDS011;45901;47.600;9.890;2022-11-12T04:11:44;7.20;;;5.60;;
60030;SDS011;45901;47.600;9.890;2022-11-12T04:14:11;8.20;;;5.83;;
60030;SDS011;45901;47.600;9.890;2022-11-12T04:16:50;7.63;;;5.90;;
60030;SDS011;45901;47.600;9.890;2022-11-12T04:19:35;7.53;;;5.63;;
60030;SDS011;45901;47.600;9.890;2022-11-12T04:22:21;8.20;;;5.70;;
60030;SDS011;45901;47.600;9.890;2022-11-12T04:24:48;8.00;;;5.90;;
60030;SDS011;45901;47.600;9.890;2022-11-12T04:27:33;8.07;;;5.70;;
60030;SDS011;45901;47.600;9.890;2022-11-12T04:30:00;7.97;;;6.00;;
60030;SDS011;45901;47.600;9.890;2022-11-12T04:32:45;8.57;;;5.77;;
60030;SDS011;45901;47.600;9.890;2022-11-12T04:35:15;7.60;;;5.33;;
60030;SDS011;45901;47.600;9.890;2022-11-12T04:37:45;7.23;;;5.57;;
60030;SDS011;45901;47.600;9.890;2022-11-12T04:40:13;6.87;;;5.53;;
60030;SDS011;45901;47.600;9.890;2022-11-12T04:43:00;6.43;;;5.50;;
60030;SDS011;45901;47.600;9.890;2022-11-12T04:45:47;7.60;;;5.73;;
60030;SDS011;45901;47.600;9.890;2022-11-12T04:48:17;7.40;;;5.80;;
60030;SDS011;45901;47.600;9.890;2022-11-12T04:50:46;7.57;;;5.33;;
60030;SDS011;45901;47.600;9.890;2022-11-12T04:53:17;6.47;;;4.73;;
60030;SDS011;45901;47.600;9.890;2022-11-12T04:55:44;7.60;;;5.40;;
60030;SDS011;45901;47.600;9.890;2022-11-12T04:58:15;7.70;;;5.63;;
60030;SDS011;45901;47.600;9.890;2022-11-12T05:00:43;7.47;;;5.43;;
60030;SDS011;45901;47.600;9.890;2022-11-12T05:03:10;7.43;;;5.17;;
60030;SDS011;45901;47.600;9.890;2022-11-12T05:05:37;6.60;;;5.20;;
60030;SDS011;45901;47.600;9.890;2022-11-12T05:08:05;8.77;;;5.57;;
60030;SDS011;45901;47.600;9.890;2022-11-12T05:10:33;7.10;;;5.30;;
60030;SDS011;45901;47.600;9.890;2022-11-12T05:13:00;6.73;;;5.30;;
60030;SDS011;45901;47.600;9.890;2022-11-12T05:15:29;7.60;;;5.47;;
60030;SDS011;45901;47.600;9.890;2022-11-12T05:18:12;6.63;;;5.33;;
60030;SDS011;45901;47.600;9.890;2022-11-12T05:20:40;6.73;;;5.20;;
60030;SDS011;45901;47.600;9.890;2022-11-12T05:23:07;7.73;;;4.83;;
60030;SDS011;45901;47.600;9.890;2022-11-12T05:25:36;6.13;;;5.10;;
60030;SDS011;45901;47.600;9.890;2022-11-12T05:28:04;6.70;;;5.17;;
60030;SDS011;45901;47.600;9.890;2022-11-12T05:30:31;6.90;;;5.07;;
60030;SDS011;45901;47.600;9.890;2022-11-12T05:33:06;7.13;;;5.27;;
60030;SDS011;45901;47.600;9.890;2022-11-12T05:35:57;8.63;;;5.20;;
60030;SDS011;45901;47.600;9.890;2022-11-12T05:38:25;7.70;;;5.23;;
60030;SDS011;45901;47.600;9.890;2022-11-12T05:40:54;7.23;;;5.23;;
60030;SDS011;45901;47.600;9.890;2022-11-12T05:43:22;6.27;;;4.53;;
60030;SDS011;45901;47.600;9.890;2022-11-12T05:45:49;8.93;;;6.03;;
60030;SDS011;45901;47.600;9.890;2022-11-12T05:48:16;9.63;;;5.77;;
60030;SDS011;45901;47.600;9.890;2022-11-12T05:50:44;8.67;;;5.47;;
60030;SDS011;45901;47.600;9.890;2022-11-12T05:53:14;9.57;;;5.97;;
60030;SDS011;45901;47.600;9.890;2022-11-12T05:55:42;8.33;;;5.53;;
60030;SDS011;45901;47.600;9.890;2022-11-12T05:58:10;7.50;;;5.03;;
60030;SDS011;45901;47.600;9.890;2022-11-12T06:00:37;7.50;;;5.00;;
60030;SDS011;45901;47.600;9.890;2022-11-12T06:03:05;6.87;;;4.87;;
60030;SDS011;45901;47.600;9.890;2022-11-12T06:05:34;9.17;;;5.70;;
60030;SDS011;45901;47.600;9.890;2022-11-12T06:08:02;7.53;;;5.20;;
60030;SDS011;45901;47.600;9.890;2022-11-12T06:10:31;7.27;;;5.27;;
60030;SDS011;45901;47.600;9.890;2022-11-12T06:12:58;6.77;;;4.73;;
60030;SDS011;45901;47.600;9.890;2022-11-12T06:15:28;6.87;;;4.60;;
60030;SDS011;45901;47.600;9.890;2022-11-12T06:17:55;10.40;;;5.47;;
60030;SDS011;45901;47.600;9.890;2022-11-12T06:20:22;6.70;;;5.20;;
60030;SDS011;45901;47.600;9.890;2022-11-12T06:22:50;7.73;;;5.27;;
60030;SDS011;45901;47.600;9.890;2022-11-12T06:25:17;7.20;;;4.80;;
60030;SDS011;45901;47.600;9.890;2022-11-12T06:27:45;6.27;;;4.80;;
60030;SDS011;45901;47.600;9.890;2022-11-12T06:30:12;8.37;;;5.70;;
60030;SDS011;45901;47.600;9.890;2022-11-12T06:32:41;58.87;;;31.03;;
60030;SDS011;45901;47.600;9.890;2022-11-12T06:35:11;109.03;;;50.80;;
60030;SDS011;45901;47.600;9.890;2022-11-12T06:37:38;96.50;;;45.27;;
60030;SDS011;45901;47.600;9.890;2022-11-12T06:40:06;59.77;;;30.90;;
60030;SDS011;45901;47.600;9.890;2022-11-12T06:42:34;51.47;;;27.40;;
60030;SDS011;45901;47.600;9.890;2022-11-12T06:45:02;31.50;;;17.20;;
60030;SDS011;45901;47.600;9.890;2022-11-12T06:47:30;27.13;;;15.97;;
60030;SDS011;45901;47.600;9.890;2022-11-12T06:49:58;20.10;;;12.63;;
60030;SDS011;45901;47.600;9.890;2022-11-12T06:52:26;20.27;;;14.53;;
60030;SDS011;45901;47.600;9.890;2022-11-12T06:54:53;16.67;;;12.60;;
60030;SDS011;45901;47.600;9.890;2022-11-12T06:57:20;16.83;;;11.50;;
60030;SDS011;45901;47.600;9.890;2022-11-12T06:59:47;16.83;;;11.87;;
60030;SDS011;45901;47.600;9.890;2022-11-12T07:02:15;22.53;;;14.57;;
60030;SDS011;45901;47.600;9.890;2022-11-12T07:04:42;26.33;;;15.70;;
60030;SDS011;45901;47.600;9.890;2022-11-12T07:07:10;22.50;;;15.50;;
60030;SDS011;45901;47.600;9.890;2022-11-12T07:09:38;25.57;;;16.00;;
60030;SDS011;45901;47.600;9.890;2022-11-12T07:12:05;48.10;;;23.90;;
60030;SDS011;45901;47.600;9.890;2022-11-12T07:14:33;49.67;;;25.00;;
60030;SDS011;45901;47.600;9.890;2022-11-12T07:17:00;56.03;;;26.40;;
60030;SDS011;45901;47.600;9.890;2022-11-12T07:19:27;30.13;;;16.53;;
60030;SDS011;45901;47.600;9.890;2022-11-12T07:21:54;30.13;;;16.03;;
60030;SDS011;45901;47.600;9.890;2022-11-12T07:24:23;38.67;;;20.03;;
60030;SDS011;45901;47.600;9.890;2022-11-12T07:26:51;77.23;;;38.93;;
60030;SDS011;45901;47.600;9.890;2022-11-12T07:29:18;84.03;;;41.90;;
60030;SDS011;45901;47.600;9.890;2022-11-12T07:31:46;63.30;;;34.60;;
60030;SDS011;45901;47.600;9.890;2022-11-12T07:34:13;60.40;;;33.10;;
60030;SDS011;45901;47.600;9.890;2022-11-12T07:36:40;62.07;;;34.00;;
60030;SDS011;45901;47.600;9.890;2022-11-12T07:39:07;55.43;;;30.27;;
60030;SDS011;45901;47.600;9.890;2022-11-12T07:41:36;50.70;;;27.80;;
60030;SDS011;45901;47.600;9.890;2022-11-12T07:44:03;49.77;;;28.87;;
60030;SDS011;45901;47.600;9.890;2022-11-12T07:46:31;48.90;;;27.20;;
60030;SDS011;45901;47.600;9.890;2022-11-12T07:48:58;34.10;;;19.67;;
60030;SDS011;45901;47.600;9.890;2022-11-12T07:51:26;24.83;;;14.07;;
60030;SDS011;45901;47.600;9.890;2022-11-12T07:53:55;25.37;;;14.57;;
60030;SDS011;45901;47.600;9.890;2022-11-12T07:56:25;25.93;;;14.27;;
60030;SDS011;45901;47.600;9.890;2022-11-12T07:58:55;20.57;;;11.90;;
60030;SDS011;45901;47.600;9.890;2022-11-12T08:01:27;21.90;;;12.03;;
60030;SDS011;45901;47.600;9.890;2022-11-12T08:03:58;22.53;;;13.27;;
60030;SDS011;45901;47.600;9.890;2022-11-12T08:06:27;23.40;;;15.97;;
60030;SDS011;45901;47.600;9.890;2022-11-12T08:08:57;23.30;;;16.50;;
60030;SDS011;45901;47.600;9.890;2022-11-12T08:11:34;22.83;;;17.20;;
60030;SDS011;45901;47.600;9.890;2022-11-12T08:14:04;22.57;;;15.97;;
60030;SDS011;45901;47.600;9.890;2022-11-12T08:16:39;16.80;;;13.00;;
60030;SDS011;45901;47.600;9.890;2022-11-12T08:19:06;17.23;;;13.60;;
60030;SDS011;45901;47.600;9.890;2022-11-12T08:21:34;35.97;;;24.20;;
60030;SDS011;45901;47.600;9.890;2022-11-12T08:24:02;25.47;;;17.47;;
60030;SDS011;45901;47.600;9.890;2022-11-12T08:26:31;38.80;;;27.33;;
60030;SDS011;45901;47.600;9.890;2022-11-12T08:28:58;32.23;;;24.00;;
60030;SDS011;45901;47.600;9.890;2022-11-12T08:31:27;56.13;;;39.60;;
60030;SDS011;45901;47.600;9.890;2022-11-12T08:33:54;60.77;;;40.90;;
60030;SDS011;45901;47.600;9.890;2022-11-12T08:36:21;47.87;;;32.40;;
60030;SDS011;45901;47.600;9.890;2022-11-12T08:38:50;40.60;;;26.00;;
60030;SDS011;45901;47.600;9.890;2022-11-12T08:41:18;47.37;;;29.57;;
60030;SDS011;45901;47.600;9.890;2022-11-12T08:43:45;43.10;;;27.83;;
60030;SDS011;45901;47.600;9.890;2022-11-12T08:46:13;42.20;;;28.23;;
60030;SDS011;45901;47.600;9.890;2022-11-12T08:48:41;35.70;;;22.97;;
60030;SDS011;45901;47.600;9.890;2022-11-12T08:51:08;34.00;;;20.73;;
60030;SDS011;45901;47.600;9.890;2022-11-12T08:53:35;26.87;;;16.37;;
60030;SDS011;45901;47.600;9.890;2022-11-12T08:56:03;21.60;;;12.77;;
60030;SDS011;45901;47.600;9.890;2022-11-12T08:58:30;14.80;;;9.47;;
60030;SDS011;45901;47.600;9.890;2022-11-12T09:01:02;14.47;;;9.60;;
60030;SDS011;45901;47.600;9.890;2022-11-12T09:03:30;14.43;;;8.80;;
60030;SDS011;45901;47.600;9.890;2022-11-12T09:06:00;11.30;;;7.23;;
60030;SDS011;45901;47.600;9.890;2022-11-12T09:08:28;11.37;;;5.73;;
60030;SDS011;45901;47.600;9.890;2022-11-12T09:10:59;8.83;;;5.53;;
60030;SDS011;45901;47.600;9.890;2022-11-12T09:13:26;10.40;;;4.90;;
60030;SDS011;45901;47.600;9.890;2022-11-12T09:15:53;9.17;;;3.07;;
60030;SDS011;45901;47.600;9.890;2022-11-12T09:18:27;5.87;;;2.23;;
60030;SDS011;45901;47.600;9.890;2022-11-12T09:20:59;3.83;;;2.53;;
60030;SDS011;45901;47.600;9.890;2022-11-12T09:23:28;3.10;;;2.07;;
60030;SDS011;45901;47.600;9.890;2022-11-12T09:25:56;2.17;;;1.63;;
60030;SDS011;45901;47.600;9.890;2022-11-12T09:28:24;2.80;;;1.80;;
60030;SDS011;45901;47.600;9.890;2022-11-12T09:30:52;3.07;;;1.50;;
60030;SDS011;45901;47.600;9.890;2022-11-12T09:33:20;2.47;;;1.30;;
60030;SDS011;45901;47.600;9.890;2022-11-12T09:35:50;2.03;;;1.03;;
60030;SDS011;45901;47.600;9.890;2022-11-12T09:38:20;1.63;;;1.13;;
60030;SDS011;45901;47.600;9.890;2022-11-12T09:40:58;1.33;;;0.73;;
60030;SDS011;45901;47.600;9.890;2022-11-12T09:43:42;1.63;;;1.00;;
60030;SDS011;45901;47.600;9.890;2022-11-12T09:46:22;1.43;;;1.00;;
60030;SDS011;45901;47.600;9.890;2022-11-12T09:49:03;1.60;;;0.90;;
60030;SDS011;45901;47.600;9.890;2022-11-12T09:51:38;1.63;;;1.07;;
60030;SDS011;45901;47.600;9.890;2022-11-12T09:54:18;1.10;;;0.90;;
60030;SDS011;45901;47.600;9.890;2022-11-12T09:56:49;2.07;;;0.97;;
60030;SDS011;45901;47.600;9.890;2022-11-12T09:59:18;1.30;;;1.13;;
60030;SDS011;45901;47.600;9.890;2022-11-12T10:01:49;1.23;;;1.00;;
60030;SDS011;45901;47.600;9.890;2022-11-12T10:04:28;1.37;;;1.17;;
60030;SDS011;45901;47.600;9.890;2022-11-12T10:07:16;2.90;;;1.80;;
60030;SDS011;45901;47.600;9.890;2022-11-12T10:10:00;2.53;;;1.43;;
60030;SDS011;45901;47.600;9.890;2022-11-12T10:12:37;3.30;;;1.70;;
60030;SDS011;45901;47.600;9.890;2022-11-12T10:15:19;1.57;;;1.27;;
60030;SDS011;45901;47.600;9.890;2022-11-12T10:18:28;2.00;;;1.20;;
60030;SDS011;45901;47.600;9.890;2022-11-12T10:21:12;2.40;;;1.07;;
60030;SDS011;45901;47.600;9.890;2022-11-12T10:23:51;2.47;;;1.53;;
60030;SDS011;45901;47.600;9.890;2022-11-12T10:26:21;3.13;;;2.20;;
60030;SDS011;45901;47.600;9.890;2022-11-12T10:28:53;3.37;;;1.90;;
60030;SDS011;45901;47.600;9.890;2022-11-12T10:31:28;4.60;;;2.30;;
60030;SDS011;45901;47.600;9.890;2022-11-12T10:33:59;3.07;;;2.03;;
60030;SDS011;45901;47.600;9.890;2022-11-12T10:36:42;1.77;;;1.30;;
60030;SDS011;45901;47.600;9.890;2022-11-12T10:39:29;1.70;;;1.20;;
60030;SDS011;45901;47.600;9.890;2022-11-12T10:42:02;1.97;;;1.40;;
60030;SDS011;45901;47.600;9.890;2022-11-12T10:44:32;4.73;;;1.63;;
60030;SDS011;45901;47.600;9.890;2022-11-12T10:47:17;20.33;;;9.30;;
60030;SDS011;45901;47.600;9.890;2022-11-12T10:50:04;11.30;;;5.20;;
60030;SDS011;45901;47.600;9.890;2022-11-12T10:52:52;16.03;;;7.87;;
60030;SDS011;45901;47.600;9.890;2022-11-12T10:55:22;10.43;;;4.17;;
60030;SDS011;45901;47.600;9.890;2022-11-12T11:00:56;9.60;;;4.80;;
60030;SDS011;45901;47.600;9.890;2022-11-12T11:03:26;28.30;;;12.33;;
60030;SDS011;45901;47.600;9.890;2022-11-12T11:05:59;16.77;;;7.83;;
60030;SDS011;45901;47.600;9.890;2022-11-12T11:08:36;8.80;;;4.47;;
60030;SDS011;45901;47.600;9.890;2022-11-12T11:11:23;32.03;;;12.90;;
60030;SDS011;45901;47.600;9.890;2022-11-12T11:13:57;17.27;;;7.03;;
60030;SDS011;45901;47.600;9.890;2022-11-12T11:17:01;15.90;;;6.67;;
60030;SDS011;45901;47.600;9.890;2022-11-12T11:19:37;8.37;;;4.10;;
60030;SDS011;45901;47.600;9.890;2022-11-12T11:27:58;3.00;;;1.80;;
60030;SDS011;45901;47.600;9.890;2022-11-12T11:30:43;2.60;;;1.60;;
60030;SDS011;45901;47.600;9.890;2022-11-12T11:33:20;2.33;;;1.50;;
60030;SDS011;45901;47.600;9.890;2022-11-12T11:35:58;2.40;;;1.50;;
60030;SDS011;45901;47.600;9.890;2022-11-12T11:38:44;2.87;;;2.10;;
60030;SDS011;45901;47.600;9.890;2022-11-12T11:41:42;2.37;;;1.97;;
60030;SDS011;45901;47.600;9.890;2022-11-12T11:44:28;5.47;;;2.50;;
60030;SDS011;45901;47.600;9.890;2022-11-12T11:47:10;2.90;;;2.00;;
60030;SDS011;45901;47.600;9.890;2022-11-12T11:50:02;3.03;;;1.70;;
60030;SDS011;45901;47.600;9.890;2022-11-12T11:52:49;2.97;;;1.50;;
60030;SDS011;45901;47.600;9.890;2022-11-12T11:55:47;4.90;;;2.50;;
60030;SDS011;45901;47.600;9.890;2022-11-12T12:01:40;4.67;;;2.13;;
60030;SDS011;45901;47.600;9.890;2022-11-12T12:04:38;3.83;;;2.43;;
60030;SDS011;45901;47.600;9.890;2022-11-12T12:07:16;3.20;;;1.43;;
60030;SDS011;45901;47.600;9.890;2022-11-12T12:09:56;2.37;;;1.43;;
60030;SDS011;45901;47.600;9.890;2022-11-12T12:12:38;2.23;;;1.57;;
60030;SDS011;45901;47.600;9.890;2022-11-12T12:15:22;2.83;;;1.63;;
60030;SDS011;45901;47.600;9.890;2022-11-12T12:18:12;1.97;;;1.50;;
60030;SDS011;45901;47.600;9.890;2022-11-12T12:20:56;3.33;;;1.60;;
60030;SDS011;45901;47.600;9.890;2022-11-12T12:23:30;3.50;;;2.07;;
60030;SDS011;45901;47.600;9.890;2022-11-12T12:26:05;2.63;;;1.80;;
60030;SDS011;45901;47.600;9.890;2022-11-12T12:28:42;3.83;;;2.10;;
60030;SDS011;45901;47.600;9.890;2022-11-12T12:31:15;3.20;;;2.30;;
60030;SDS011;45901;47.600;9.890;2022-11-12T12:34:05;2.27;;;1.77;;
60030;SDS011;45901;47.600;9.890;2022-11-12T12:36:45;4.77;;;1.70;;
60030;SDS011;45901;47.600;9.890;2022-11-12T12:39:16;2.83;;;2.07;;
60030;SDS011;45901;47.600;9.890;2022-11-12T12:41:52;2.37;;;1.90;;
60030;SDS011;45901;47.600;9.890;2022-11-12T12:44:25;2.53;;;1.50;;
60030;SDS011;45901;47.600;9.890;2022-11-12T12:47:10;2.80;;;1.70;;
60030;SDS011;45901;47.600;9.890;2022-11-12T12:49:41;2.93;;;1.80;;
60030;SDS011;45901;47.600;9.890;2022-11-12T12:52:12;4.40;;;1.77;;
60030;SDS011;45901;47.600;9.890;2022-11-12T12:54:56;2.70;;;2.00;;
60030;SDS011;45901;47.600;9.890;2022-11-12T12:57:26;3.70;;;2.37;;
60030;SDS011;45901;47.600;9.890;2022-11-12T13:03:03;3.37;;;1.80;;
60030;SDS011;45901;47.600;9.890;2022-11-12T13:05:32;4.30;;;1.80;;
60030;SDS011;45901;47.600;9.890;2022-11-12T13:08:03;3.50;;;2.13;;
60030;SDS011;45901;47.600;9.890;2022-11-12T13:10:45;2.47;;;2.03;;
60030;SDS011;45901;47.600;9.890;2022-11-12T13:13:23;4.27;;;2.47;;
60030;SDS011;45901;47.600;9.890;2022-11-12T13:15:53;2.77;;;1.93;;
60030;SDS011;45901;47.600;9.890;2022-11-12T13:21:28;4.77;;;3.17;;
60030;SDS011;45901;47.600;9.890;2022-11-12T13:23:58;4.40;;;3.03;;
60030;SDS011;45901;47.600;9.890;2022-11-12T13:26:46;3.83;;;2.70;;
60030;SDS011;45901;47.600;9.890;2022-11-12T13:29:19;3.77;;;2.77;;
60030;SDS011;45901;47.600;9.890;2022-11-12T13:32:24;3.03;;;2.43;;
60030;SDS011;45901;47.600;9.890;2022-11-12T13:38:03;4.00;;;3.10;;
60030;SDS011;45901;47.600;9.890;2022-11-12T13:40:45;4.83;;;2.70;;
60030;SDS011;45901;47.600;9.890;2022-11-12T13:43:46;6.83;;;2.63;;
60030;SDS011;45901;47.600;9.890;2022-11-12T13:46:22;5.77;;;2.90;;
60030;SDS011;45901;47.600;9.890;2022-11-12T13:52:12;4.40;;;3.20;;
60030;SDS011;45901;47.600;9.890;2022-11-12T13:54:41;3.27;;;2.70;;
60030;SDS011;45901;47.600;9.890;2022-11-12T13:57:23;4.77;;;3.37;;
60030;SDS011;45901;47.600;9.890;2022-11-12T14:00:18;4.30;;;3.70;;
60030;SDS011;45901;47.600;9.890;2022-11-12T14:02:50;7.10;;;4.80;;
60030;SDS011;45901;47.600;9.890;2022-11-12T14:05:21;6.53;;;5.10;;
60030;SDS011;45901;47.600;9.890;2022-11-12T14:11:06;9.03;;;5.17;;
60030;SDS011;45901;47.600;9.890;2022-11-12T14:14:15;6.40;;;4.63;;
60030;SDS011;45901;47.600;9.890;2022-11-12T14:16:58;9.20;;;6.90;;
60030;SDS011;45901;47.600;9.890;2022-11-12T14:22:50;17.00;;;10.93;;
60030;SDS011;45901;47.600;9.890;2022-11-12T14:25:19;28.37;;;14.70;;
60030;SDS011;45901;47.600;9.890;2022-11-12T14:27:49;20.30;;;12.20;;
60030;SDS011;45901;47.600;9.890;2022-11-12T14:30:20;9.80;;;7.40;;
60030;SDS011;45901;47.600;9.890;2022-11-12T14:32:50;12.80;;;8.27;;
60030;SDS011;45901;47.600;9.890;2022-11-12T14:35:23;9.37;;;7.17;;
60030;SDS011;45901;47.600;9.890;2022-11-12T14:38:11;9.50;;;6.70;;
60030;SDS011;45901;47.600;9.890;2022-11-12T14:40:44;10.27;;;7.50;;
60030;SDS011;45901;47.600;9.890;2022-11-12T14:43:19;9.20;;;6.93;;
60030;SDS011;45901;47.600;9.890;2022-11-12T14:45:58;8.97;;;6.77;;
60030;SDS011;45901;47.600;9.890;2022-11-12T14:48:27;9.00;;;6.20;;
60030;SDS011;45901;47.600;9.890;2022-11-12T14:50:59;8.07;;;6.07;;
60030;SDS011;45901;47.600;9.890;2022-11-12T14:53:31;13.33;;;8.67;;
60030;SDS011;45901;47.600;9.890;2022-11-12T14:56:07;10.27;;;7.43;;
60030;SDS011;45901;47.600;9.890;2022-11-12T14:58:41;11.80;;;7.67;;
60030;SDS011;45901;47.600;9.890;2022-11-12T15:01:23;11.40;;;8.00;;
60030;SDS011;45901;47.600;9.890;2022-11-12T15:04:02;10.30;;;7.13;;
60030;SDS011;45901;47.600;9.890;2022-11-12T15:06:41;7.60;;;6.20;;
60030;SDS011;45901;47.600;9.890;2022-11-12T15:09:17;9.60;;;6.10;;
60030;SDS011;45901;47.600;9.890;2022-11-12T15:11:58;7.60;;;6.27;;
60030;SDS011;45901;47.600;9.890;2022-11-12T15:14:31;9.20;;;7.00;;
60030;SDS011;45901;47.600;9.890;2022-11-12T15:17:01;9.40;;;6.47;;
60030;SDS011;45901;47.600;9.890;2022-11-12T15:19:32;9.03;;;6.57;;
60030;SDS011;45901;47.600;9.890;2022-11-12T15:22:16;11.47;;;7.40;;
60030;SDS011;45901;47.600;9.890;2022-11-12T15:24:46;9.57;;;7.57;;
60030;SDS011;45901;47.600;9.890;2022-11-12T15:27:32;10.03;;;7.37;;
60030;SDS011;45901;47.600;9.890;2022-11-12T15:30:15;10.00;;;7.97;;
60030;SDS011;45901;47.600;9.890;2022-11-12T15:32:49;9.67;;;7.43;;
60030;SDS011;45901;47.600;9.890;2022-11-12T15:35:33;14.07;;;9.00;;
60030;SDS011;45901;47.600;9.890;2022-11-12T15:38:04;12.33;;;8.43;;
60030;SDS011;45901;47.600;9.890;2022-11-12T15:40:39;13.37;;;8.77;;
60030;SDS011;45901;47.600;9.890;2022-11-12T15:43:16;11.83;;;8.87;;
60030;SDS011;45901;47.600;9.890;2022-11-12T15:45:47;11.87;;;8.17;;
60030;SDS011;45901;47.600;9.890;2022-11-12T15:48:16;12.57;;;9.17;;